Hamilton, MT

5:22 AM MST on February 27, 2017 (GMT -0700)
MK6S5 | | Change Station
Active Advisory: Winter Weather Advisory

Elev 3640 ft 46.25 °N, 114.13 °W | Updated 18 minutes ago

Mostly Cloudy
Mostly Cloudy
27.0 °F
Feels Like 27 °F
N
3.0
Wind Variable Wind from SSW

Today
High -- | Low -- °F
--% Chance of Precip.
Yesterday
High -- | Low -- °F
Precip. -- in
Pressure 29.59 in
Visibility 2.5 miles
Clouds Overcast 3600 ft
Windchill 27 °F
Dew Point 19 °F
Humidity 73%
Rainfall 0.03 in
Snow Depth Not available.
7:18 AM 6:20 PM
New Moon, 1% visible
SPECI KMSO 271215Z AUTO 17003KT 2 1/2SM -SN BR OVC036 M05/M05 A2959 RMK AO2 P0000 T10501050
Pressure 29.59 in
Visibility 2.5 miles
Clouds Overcast 3600 ft
Windchill 27 °F
Dew Point 19 °F
Humidity 73%
Rainfall 0.03 in
Snow Depth Not available.
7:18 AM 6:20 PM
New Moon, 1% visible
SPECI KMSO 271215Z AUTO 17003KT 2 1/2SM -SN BR OVC036 M05/M05 A2959 RMK AO2 P0000 T10501050

Get Your Daily Forecast Email!

Thanks for signing up!

Be on the lookout for a verification email in your inbox.

You'll start receiving the daily forecast at 8 AM.

×

10-Day Weather Forecast

Almanac

Astronomy

Feb. 27, 2017 Rise Set
Actual Time
Civil Twilight
Nautical Twilight
Astronomical Twilight
Moon
Length of Visible Light
Length of Day
Tomorrow will be .
, % of the Moon is Illuminated

Today's Extremes

State Highs State Lows

Community

WunderPhotos

Upload Photos

1,962,540 photos uploaded!

WunderBlog® & News

Nearby

Air Quality

  Air Quality AQ Index Pollutant
Not available.

Snow Depth

Station Depth Elevation

Earthquake Activity

City Distance Mag. Time & Date
Minimum magnitude displayed is 2.5.

Coastal Water Temperatures

Place Temperature

Stations

Nearby Weather Stations

Station Location Temp. Windchill Dew Point Humidity Wind Precip. Elev Updated Type
                   

Watches & Warnings

Winter Weather Advisory
Issued: 10:36 PM MST Feb. 26, 2017 – National Weather Service

... Winter Weather Advisory remains in effect until noon MST
Monday for Bitterroot valley and Missoula...

* impacts/timing: persistent scattered snow showers and isolated
bands will continue through the overnight hours tonight. Snow
is now starting to stick to the roads creating slick
conditions this evening. Not all locations will see
accumulating snow, these bands are isolated in nature.

* Snow accumulations: an additional 1 to 2 inches possible for
isolated areas.